Time;durP1;ratioP1;P1;durP2;ratioP2;P2;SDS_P1;SDS_P2;PMS_P1;PMS_P2;Temp;Humidity;BMP_temperature;BMP_pressure;BME280_temperature;BME280_humidity;BME280_pressure;Samples;Min_cycle;Max_cycle;Signal;HPM_P1;HPM_P2
2021/09/08 00:00:20;;;;;;;8.38;5.63;;;23.70;56.70;;;;;;5053324;28;20048;-52
2021/09/08 00:02:45;;;;;;;6.38;5.13;;;23.60;56.60;;;;;;5052919;28;20072;-55
2021/09/08 00:05:11;;;;;;;6.10;5.13;;;23.70;56.70;;;;;;5069337;28;20024;-52
2021/09/08 00:07:37;;;;;;;8.05;6.28;;;23.70;56.70;;;;;;5072468;28;20100;-52
2021/09/08 00:10:07;;;;;;;8.90;6.07;;;23.70;56.70;;;;;;5063498;28;20057;-54
2021/09/08 00:12:33;;;;;;;7.05;6.22;;;23.70;56.60;;;;;;5052616;28;20029;-52
2021/09/08 00:14:59;;;;;;;6.30;5.13;;;23.70;56.60;;;;;;5052926;28;20033;-52
2021/09/08 00:17:25;;;;;;;7.70;5.97;;;23.70;56.50;;;;;;5052246;28;20112;-54
2021/09/08 00:19:51;;;;;;;9.20;6.15;;;23.70;56.70;;;;;;5052443;28;20116;-54
2021/09/08 00:22:16;;;;;;;6.43;5.40;;;23.70;56.60;;;;;;5052764;28;20359;-53
2021/09/08 00:24:42;;;;;;;7.60;5.78;;;23.70;56.60;;;;;;5053567;28;20029;-54
2021/09/08 00:27:08;;;;;;;6.53;5.50;;;23.60;56.50;;;;;;5052237;28;20463;-54
2021/09/08 00:29:34;;;;;;;7.70;5.82;;;23.70;56.50;;;;;;5051812;28;20064;-54
2021/09/08 00:32:01;;;;;;;7.28;5.38;;;23.70;56.40;;;;;;5052690;28;20036;-55
2021/09/08 00:34:27;;;;;;;8.82;6.03;;;23.70;56.50;;;;;;5058835;28;20070;-55
2021/09/08 00:36:52;;;;;;;6.18;5.32;;;23.70;56.50;;;;;;5059023;28;20075;-54
2021/09/08 00:39:18;;;;;;;8.77;5.45;;;23.70;56.50;;;;;;5052748;28;20415;-56
2021/09/08 00:41:44;;;;;;;7.38;5.60;;;23.70;56.50;;;;;;5051509;28;20029;-54
2021/09/08 00:44:11;;;;;;;7.28;5.88;;;23.70;56.50;;;;;;5052344;28;20490;-56
2021/09/08 00:46:40;;;;;;;6.57;5.65;;;23.70;56.50;;;;;;5051424;28;20033;-56
2021/09/08 00:49:05;;;;;;;6.93;5.50;;;23.60;56.30;;;;;;5049041;28;20033;-54
2021/09/08 00:51:32;;;;;;;8.35;6.45;;;23.70;56.40;;;;;;5031390;28;20091;-55
2021/09/08 00:53:59;;;;;;;6.18;5.43;;;23.70;56.50;;;;;;5048999;28;20033;-55
2021/09/08 00:56:27;;;;;;;7.13;5.90;;;23.60;56.40;;;;;;5052064;28;20041;-54
2021/09/08 00:58:53;;;;;;;7.43;5.90;;;23.60;56.70;;;;;;5052186;28;20037;-52
2021/09/08 01:01:19;;;;;;;7.32;5.97;;;23.60;56.50;;;;;;5052822;28;20044;-52
2021/09/08 01:03:49;;;;;;;7.43;6.13;;;23.60;56.40;;;;;;5054942;28;20435;-52
2021/09/08 01:06:14;;;;;;;7.10;5.68;;;23.60;56.40;;;;;;5071943;28;20440;-53
2021/09/08 01:08:40;;;;;;;7.38;5.68;;;23.60;56.40;;;;;;5071618;28;20039;-50
2021/09/08 01:11:06;;;;;;;6.72;5.82;;;23.60;56.50;;;;;;5052616;28;20398;-52
2021/09/08 01:13:32;;;;;;;9.10;6.13;;;23.60;56.40;;;;;;5050651;28;20121;-55
2021/09/08 01:16:01;;;;;;;6.45;5.47;;;23.60;56.30;;;;;;5052177;28;20036;-56
2021/09/08 01:18:28;;;;;;;7.38;5.72;;;23.60;56.30;;;;;;5049958;28;20488;-55
2021/09/08 01:20:54;;;;;;;6.22;5.53;;;23.60;56.30;;;;;;5050055;28;20029;-55
2021/09/08 01:23:20;;;;;;;7.63;6.13;;;23.60;56.40;;;;;;5048097;28;20033;-54
2021/09/08 01:25:46;;;;;;;7.82;5.97;;;23.60;56.30;;;;;;5049060;28;20467;-55
2021/09/08 01:28:12;;;;;;;7.25;5.50;;;23.60;56.50;;;;;;5048798;28;20047;-55
2021/09/08 01:30:41;;;;;;;6.88;5.72;;;23.60;56.60;;;;;;5049073;28;20079;-55
2021/09/08 01:33:14;;;;;;;7.38;5.80;;;23.60;56.50;;;;;;5049625;28;20044;-54
2021/09/08 01:35:40;;;;;;;7.00;5.78;;;23.60;56.40;;;;;;5049397;28;20028;-55
2021/09/08 01:38:06;;;;;;;5.97;5.32;;;23.60;56.40;;;;;;5050243;28;20032;-54
2021/09/08 01:40:33;;;;;;;6.82;5.32;;;23.60;56.40;;;;;;5049642;28;20040;-54
2021/09/08 01:42:59;;;;;;;6.38;5.70;;;23.60;56.50;;;;;;5049743;28;20025;-55
2021/09/08 01:45:25;;;;;;;7.57;5.63;;;23.60;56.30;;;;;;5050584;28;20139;-55
2021/09/08 01:47:55;;;;;;;8.18;5.88;;;23.60;56.30;;;;;;5049285;28;20108;-53
2021/09/08 01:50:21;;;;;;;6.57;5.50;;;23.60;56.30;;;;;;5047603;28;20029;-55
2021/09/08 01:52:47;;;;;;;7.82;5.90;;;23.60;56.30;;;;;;5048922;28;20463;-55
2021/09/08 01:55:13;;;;;;;7.78;5.60;;;23.60;56.30;;;;;;5050612;28;20040;-55
2021/09/08 01:57:39;;;;;;;7.07;5.75;;;23.60;56.30;;;;;;5049698;28;20420;-55
2021/09/08 02:00:07;;;;;;;7.00;5.40;;;23.60;56.40;;;;;;5050212;28;20048;-55
2021/09/08 02:02:33;;;;;;;7.45;5.30;;;23.60;56.30;;;;;;5052040;28;20051;-53
2021/09/08 02:04:58;;;;;;;8.38;6.13;;;23.60;56.40;;;;;;5052741;28;20025;-53
2021/09/08 02:07:24;;;;;;;7.82;6.20;;;23.60;56.30;;;;;;5054316;28;20029;-54
2021/09/08 02:09:50;;;;;;;7.28;6.00;;;23.60;56.30;;;;;;5053117;28;20075;-55
2021/09/08 02:12:16;;;;;;;6.97;5.70;;;23.60;56.40;;;;;;5053150;28;20462;-53
2021/09/08 02:14:42;;;;;;;7.18;5.68;;;23.60;56.30;;;;;;5052797;28;20037;-54
2021/09/08 02:17:07;;;;;;;7.82;5.75;;;23.60;56.30;;;;;;5053745;28;20462;-55
2021/09/08 02:19:33;;;;;;;7.35;5.55;;;23.60;56.20;;;;;;5053016;28;20040;-55
2021/09/08 02:21:59;;;;;;;6.25;5.15;;;23.60;56.30;;;;;;5051343;28;20074;-53
2021/09/08 02:24:24;;;;;;;6.85;5.63;;;23.60;56.30;;;;;;5053415;28;20068;-55
2021/09/08 02:26:50;;;;;;;7.55;5.53;;;23.60;56.30;;;;;;5052928;28;20033;-53
2021/09/08 02:29:16;;;;;;;8.23;5.88;;;23.60;56.30;;;;;;5053409;28;20064;-53
2021/09/08 02:31:41;;;;;;;6.78;5.70;;;23.60;56.90;;;;;;5053133;28;20037;-55
2021/09/08 02:34:07;;;;;;;8.43;5.78;;;23.60;56.20;;;;;;5052502;28;20033;-55
2021/09/08 02:36:33;;;;;;;7.65;5.97;;;23.60;56.20;;;;;;5052527;28;20056;-55
2021/09/08 02:39:00;;;;;;;7.80;5.90;;;23.60;56.20;;;;;;5053271;28;20052;-54
2021/09/08 02:41:26;;;;;;;6.47;5.22;;;23.60;56.20;;;;;;5053025;28;20457;-52
2021/09/08 02:43:52;;;;;;;6.55;5.15;;;23.60;56.20;;;;;;5052979;28;20111;-53
2021/09/08 02:46:19;;;;;;;7.45;5.70;;;23.50;56.20;;;;;;5053620;28;20021;-54
2021/09/08 02:48:44;;;;;;;7.32;5.70;;;23.60;56.20;;;;;;5050600;28;20033;-53
2021/09/08 02:51:10;;;;;;;7.32;5.80;;;23.50;56.70;;;;;;5054854;28;20039;-55
2021/09/08 02:53:36;;;;;;;6.88;5.95;;;23.50;56.10;;;;;;5052246;28;20028;-55
2021/09/08 02:56:02;;;;;;;7.28;5.50;;;23.50;56.10;;;;;;5052347;28;20052;-54
2021/09/08 02:58:28;;;;;;;6.65;5.50;;;23.50;56.00;;;;;;5052455;28;20025;-55
2021/09/08 03:00:54;;;;;;;7.05;5.68;;;23.50;56.00;;;;;;5052133;28;20084;-55
2021/09/08 03:03:20;;;;;;;7.78;5.72;;;23.50;56.00;;;;;;5052746;28;20065;-54
2021/09/08 03:05:47;;;;;;;8.52;5.68;;;23.50;56.00;;;;;;5052211;28;20052;-55
2021/09/08 03:08:13;;;;;;;7.80;6.15;;;23.60;56.10;;;;;;5053194;28;20096;-55
2021/09/08 03:10:39;;;;;;;7.43;5.55;;;23.50;56.00;;;;;;5051922;28;20120;-54
2021/09/08 03:13:05;;;;;;;8.18;5.68;;;23.60;56.00;;;;;;5052530;28;20029;-53
2021/09/08 03:15:31;;;;;;;7.70;5.60;;;23.50;56.00;;;;;;5052225;28;20063;-54
2021/09/08 03:17:57;;;;;;;6.90;6.15;;;23.50;56.00;;;;;;5052936;28;20017;-54
2021/09/08 03:20:23;;;;;;;6.60;5.43;;;23.60;56.00;;;;;;5053224;28;20041;-55
2021/09/08 03:22:48;;;;;;;6.72;5.53;;;23.50;56.00;;;;;;5052486;28;20036;-54
2021/09/08 03:25:14;;;;;;;7.03;5.45;;;23.50;56.00;;;;;;5052807;28;20029;-55
2021/09/08 03:27:40;;;;;;;7.70;6.18;;;23.50;56.00;;;;;;5051671;28;20020;-55
2021/09/08 03:30:07;;;;;;;6.88;5.68;;;23.50;56.00;;;;;;5052541;28;20112;-56
2021/09/08 03:32:32;;;;;;;7.45;5.40;;;23.50;56.00;;;;;;5051932;28;20506;-55
2021/09/08 03:34:58;;;;;;;9.43;5.15;;;23.50;55.90;;;;;;5051479;28;20106;-52
2021/09/08 03:37:24;;;;;;;7.78;5.82;;;23.50;55.90;;;;;;5052145;28;20055;-54
2021/09/08 03:39:51;;;;;;;6.88;5.63;;;23.50;55.90;;;;;;5051664;28;20016;-51
2021/09/08 03:42:17;;;;;;;8.05;5.90;;;23.50;55.90;;;;;;5051672;28;20474;-51
2021/09/08 03:44:43;;;;;;;6.57;5.32;;;23.50;55.90;;;;;;5051348;28;20037;-54
2021/09/08 03:47:08;;;;;;;7.60;6.15;;;23.50;55.90;;;;;;5052395;28;20036;-55
2021/09/08 03:49:34;;;;;;;8.43;6.03;;;23.50;55.90;;;;;;5051255;28;20441;-56
2021/09/08 03:52:00;;;;;;;7.10;5.53;;;23.50;55.80;;;;;;5054082;28;20057;-52
2021/09/08 03:54:25;;;;;;;6.40;5.20;;;23.50;55.90;;;;;;5049442;28;20043;-55
2021/09/08 03:56:51;;;;;;;6.80;5.80;;;23.50;55.90;;;;;;5049741;28;20037;-53
2021/09/08 03:59:17;;;;;;;8.02;5.85;;;23.50;55.90;;;;;;5051335;28;20037;-54
2021/09/08 04:01:43;;;;;;;8.35;6.18;;;23.50;56.50;;;;;;5051017;28;20064;-55
2021/09/08 04:04:09;;;;;;;7.38;5.82;;;23.50;55.90;;;;;;5052055;28;20033;-55
2021/09/08 04:06:34;;;;;;;7.93;5.95;;;23.50;55.90;;;;;;5050955;28;20036;-53
2021/09/08 04:09:00;;;;;;;6.70;5.60;;;23.50;55.90;;;;;;5052996;28;20421;-55
2021/09/08 04:11:25;;;;;;;8.60;5.97;;;23.50;55.80;;;;;;5052020;28;20091;-54
2021/09/08 04:13:51;;;;;;;6.18;5.20;;;23.50;55.80;;;;;;5050887;28;20056;-55
2021/09/08 04:16:17;;;;;;;7.07;5.78;;;23.50;55.80;;;;;;5051454;28;20040;-52
2021/09/08 04:18:42;;;;;;;8.07;5.88;;;23.50;55.80;;;;;;5050701;28;20033;-53
2021/09/08 04:21:08;;;;;;;8.40;6.30;;;23.50;55.80;;;;;;5054053;28;20043;-51
2021/09/08 04:23:34;;;;;;;8.18;5.85;;;23.50;55.80;;;;;;5050513;28;20029;-50
2021/09/08 04:25:59;;;;;;;6.63;5.70;;;23.50;55.80;;;;;;5051216;28;20100;-54
2021/09/08 04:28:25;;;;;;;7.25;5.70;;;23.50;55.80;;;;;;5050764;28;20021;-52
2021/09/08 04:30:50;;;;;;;6.35;5.57;;;23.50;55.70;;;;;;5051122;28;20029;-54
2021/09/08 04:33:16;;;;;;;7.10;5.63;;;23.50;55.70;;;;;;5050778;28;20021;-51
2021/09/08 04:35:42;;;;;;;6.18;5.30;;;23.50;55.70;;;;;;5050143;28;20530;-53
2021/09/08 04:38:07;;;;;;;6.47;5.45;;;23.50;55.70;;;;;;5050990;28;20025;-54
2021/09/08 04:40:33;;;;;;;11.50;6.35;;;23.50;55.70;;;;;;5050270;28;20489;-52
2021/09/08 04:42:59;;;;;;;7.10;6.20;;;23.50;55.70;;;;;;5051253;28;20420;-51
2021/09/08 04:45:24;;;;;;;6.50;5.22;;;23.50;55.70;;;;;;5051128;28;20567;-52
2021/09/08 04:47:50;;;;;;;8.18;5.65;;;23.50;55.70;;;;;;5051735;28;20585;-53
2021/09/08 04:50:15;;;;;;;7.35;5.38;;;23.50;55.60;;;;;;5052227;28;20033;-55
2021/09/08 04:52:41;;;;;;;7.70;5.50;;;23.50;55.60;;;;;;5071784;28;20028;-52
2021/09/08 04:55:07;;;;;;;6.88;5.40;;;23.50;55.60;;;;;;5058135;28;20028;-53
2021/09/08 04:57:33;;;;;;;6.93;5.88;;;23.50;55.60;;;;;;5051160;28;20056;-53
2021/09/08 04:59:59;;;;;;;6.80;5.60;;;23.50;55.60;;;;;;5051362;28;20399;-54
2021/09/08 05:02:24;;;;;;;7.93;5.85;;;23.50;55.50;;;;;;5051882;28;20079;-55
2021/09/08 05:04:50;;;;;;;8.70;6.45;;;23.50;55.60;;;;;;5051037;28;20108;-49
2021/09/08 05:07:16;;;;;;;6.78;5.40;;;23.50;55.60;;;;;;5051856;28;20039;-52
2021/09/08 05:09:41;;;;;;;7.30;5.63;;;23.50;55.60;;;;;;5051277;28;20044;-53
2021/09/08 05:12:07;;;;;;;6.65;5.72;;;23.50;55.60;;;;;;5052007;28;20063;-52
2021/09/08 05:14:33;;;;;;;8.07;6.00;;;23.50;55.60;;;;;;5050756;28;20037;-55
2021/09/08 05:16:58;;;;;;;6.72;5.60;;;23.50;55.60;;;;;;5051744;28;20470;-53
2021/09/08 05:19:24;;;;;;;6.88;5.57;;;23.50;55.60;;;;;;5052111;28;20033;-54
2021/09/08 05:21:49;;;;;;;7.97;5.88;;;23.50;55.60;;;;;;5049988;28;20645;-49
2021/09/08 05:24:15;;;;;;;8.02;5.35;;;23.50;55.60;;;;;;5054593;28;20028;-51
2021/09/08 05:26:41;;;;;;;6.80;5.15;;;23.50;55.50;;;;;;5050678;28;20382;-54
2021/09/08 05:29:06;;;;;;;6.95;5.70;;;23.50;55.50;;;;;;5051715;28;20033;-50
2021/09/08 05:31:32;;;;;;;6.70;5.55;;;23.50;55.60;;;;;;5053015;28;20170;-55
2021/09/08 05:33:58;;;;;;;8.10;6.28;;;23.50;55.60;;;;;;5051368;28;20021;-53
2021/09/08 05:36:23;;;;;;;6.80;5.72;;;23.40;55.60;;;;;;5051753;28;20037;-52
2021/09/08 05:38:50;;;;;;;6.60;5.43;;;23.50;55.60;;;;;;5050804;28;20616;-54
2021/09/08 05:41:16;;;;;;;6.55;5.40;;;23.50;55.50;;;;;;5051190;28;20040;-52
2021/09/08 05:43:42;;;;;;;10.50;6.03;;;23.50;55.60;;;;;;5050694;28;20041;-53
2021/09/08 05:46:07;;;;;;;6.60;5.13;;;23.60;55.90;;;;;;5050879;28;20092;-50
2021/09/08 05:48:33;;;;;;;10.10;6.07;;;23.60;56.00;;;;;;5050362;28;20363;-54
2021/09/08 05:51:00;;;;;;;7.97;5.20;;;23.60;56.20;;;;;;5051824;28;20032;-53
2021/09/08 05:53:26;;;;;;;9.68;5.45;;;23.60;56.40;;;;;;5051773;28;20029;-55
2021/09/08 05:55:53;;;;;;;8.40;5.45;;;23.50;56.40;;;;;;5051715;28;20108;-56
2021/09/08 05:58:19;;;;;;;9.40;5.68;;;23.50;56.30;;;;;;5051331;28;20024;-52
2021/09/08 06:00:45;;;;;;;11.57;7.40;;;23.50;53.50;;;;;;5057037;28;20042;-54
2021/09/08 06:03:10;;;;;;;10.77;6.85;;;23.40;53.00;;;;;;5051054;28;20053;-53
2021/09/08 06:05:36;;;;;;;9.60;6.85;;;23.30;52.90;;;;;;5050135;28;20057;-52
2021/09/08 06:08:02;;;;;;;9.70;7.15;;;23.30;52.50;;;;;;5049775;28;20036;-52
2021/09/08 06:10:28;;;;;;;8.20;6.35;;;23.30;52.50;;;;;;5050834;28;20429;-56
2021/09/08 06:12:53;;;;;;;10.52;7.57;;;23.30;52.70;;;;;;5050239;28;20028;-55
2021/09/08 06:15:20;;;;;;;9.35;7.03;;;23.30;52.50;;;;;;5049821;28;20501;-55
2021/09/08 06:17:47;;;;;;;9.40;6.70;;;23.30;52.40;;;;;;5050127;28;20029;-50
2021/09/08 06:20:12;;;;;;;10.77;6.93;;;23.20;52.90;;;;;;5061898;28;20035;-55
2021/09/08 06:22:39;;;;;;;7.03;5.55;;;23.20;53.80;;;;;;5070135;28;20526;-56
2021/09/08 06:25:05;;;;;;;7.30;5.78;;;23.30;55.80;;;;;;5070790;28;20066;-56
2021/09/08 06:27:31;;;;;;;7.45;5.60;;;23.30;54.70;;;;;;5054453;28;20467;-56
2021/09/08 06:29:57;;;;;;;7.78;6.00;;;23.40;54.60;;;;;;5054948;28;20028;-56
2021/09/08 06:32:23;;;;;;;8.50;6.05;;;23.40;55.10;;;;;;5049966;28;20510;-55
2021/09/08 06:34:48;;;;;;;7.45;6.30;;;23.40;55.30;;;;;;5049953;28;20029;-55
2021/09/08 06:37:15;;;;;;;7.15;5.82;;;23.40;55.50;;;;;;5048866;28;20064;-54
2021/09/08 06:39:41;;;;;;;9.50;6.10;;;23.40;55.60;;;;;;5041522;28;20025;-55
2021/09/08 06:42:06;;;;;;;11.63;6.43;;;23.40;55.70;;;;;;5051156;28;20104;-54
2021/09/08 06:44:32;;;;;;;11.05;7.90;;;23.30;55.60;;;;;;5050959;28;20090;-55
2021/09/08 06:46:58;;;;;;;14.27;8.38;;;23.30;54.30;;;;;;5050098;28;20032;-53
2021/09/08 06:49:24;;;;;;;16.27;9.73;;;23.20;53.90;;;;;;5043891;28;20033;-55
2021/09/08 06:51:50;;;;;;;11.68;8.93;;;23.20;53.90;;;;;;5045640;28;20462;-53
2021/09/08 06:54:15;;;;;;;13.48;10.35;;;23.20;53.80;;;;;;5052929;28;20064;-54
2021/09/08 06:56:41;;;;;;;16.80;10.27;;;23.10;53.70;;;;;;5053653;28;20036;-55
2021/09/08 06:59:08;;;;;;;15.85;9.25;;;23.10;53.80;;;;;;5053335;28;20111;-55
2021/09/08 07:01:34;;;;;;;13.60;9.48;;;23.10;53.80;;;;;;5052697;28;20418;-56
2021/09/08 07:04:00;;;;;;;11.98;9.52;;;23.10;54.00;;;;;;5055160;28;20029;-55
2021/09/08 07:06:26;;;;;;;14.38;10.00;;;23.10;54.00;;;;;;5048350;28;20032;-54
2021/09/08 07:08:53;;;;;;;15.68;10.27;;;23.20;54.20;;;;;;5054575;28;20049;-57
2021/09/08 07:11:21;;;;;;;16.70;10.57;;;23.10;54.20;;;;;;5050253;28;20031;-58
2021/09/08 07:13:47;;;;;;;14.30;11.07;;;23.20;54.50;;;;;;5051219;28;20036;-56
2021/09/08 07:16:13;;;;;;;16.13;10.55;;;23.20;54.10;;;;;;5053781;28;20040;-56
2021/09/08 07:18:38;;;;;;;17.00;10.88;;;23.20;54.50;;;;;;5055028;28;20075;-58
2021/09/08 07:21:04;;;;;;;17.40;10.73;;;23.10;54.10;;;;;;5053520;28;20122;-58
2021/09/08 07:23:30;;;;;;;17.13;10.73;;;23.10;54.00;;;;;;5053068;28;20424;-58
2021/09/08 07:25:56;;;;;;;15.65;10.43;;;23.10;54.00;;;;;;5052727;28;20032;-58
2021/09/08 07:28:22;;;;;;;16.25;10.38;;;23.10;53.80;;;;;;5053320;28;20437;-58
2021/09/08 07:30:53;;;;;;;14.48;10.13;;;23.10;53.80;;;;;;5045659;28;20040;-58
2021/09/08 07:33:19;;;;;;;14.55;9.02;;;23.10;53.60;;;;;;5052834;28;20419;-58
2021/09/08 07:35:47;;;;;;;14.77;9.05;;;23.10;53.40;;;;;;5052615;28;20082;-58
2021/09/08 07:38:18;;;;;;;14.02;9.77;;;23.10;53.20;;;;;;5053627;28;20032;-58
2021/09/08 07:40:44;;;;;;;17.27;10.32;;;23.10;53.00;;;;;;5053210;28;20021;-58
2021/09/08 07:43:10;;;;;;;13.18;8.57;;;23.10;53.00;;;;;;5052724;28;20524;-57
2021/09/08 07:45:37;;;;;;;16.48;10.27;;;23.10;53.60;;;;;;5052970;28;20083;-55
2021/09/08 07:48:03;;;;;;;14.50;8.68;;;23.10;53.80;;;;;;5053653;28;20057;-54
2021/09/08 07:50:29;;;;;;;14.75;9.32;;;23.10;53.70;;;;;;5073740;28;20025;-54
2021/09/08 07:52:54;;;;;;;15.70;9.70;;;23.10;53.30;;;;;;5056053;28;20378;-54
2021/09/08 07:55:20;;;;;;;14.02;9.30;;;23.10;53.20;;;;;;5052543;28;20048;-55
2021/09/08 07:57:46;;;;;;;11.57;8.52;;;23.20;53.30;;;;;;5052002;28;20496;-54
2021/09/08 08:00:12;;;;;;;12.70;9.77;;;22.90;54.00;;;;;;5051294;28;20041;-55
2021/09/08 08:02:51;;;;;;;13.27;10.02;;;22.70;54.00;;;;;;5052411;28;20039;-57
2021/09/08 08:05:18;;;;;;;12.85;9.38;;;22.50;54.10;;;;;;5052787;28;20486;-55
2021/09/08 08:07:44;;;;;;;12.80;8.85;;;22.50;54.40;;;;;;5051875;28;20029;-59
2021/09/08 08:10:11;;;;;;;11.93;8.75;;;22.40;54.80;;;;;;5052342;28;20107;-55
2021/09/08 08:12:37;;;;;;;15.15;7.75;;;22.50;54.70;;;;;;5052703;28;20029;-55
2021/09/08 08:15:06;;;;;;;10.02;5.70;;;22.80;54.20;;;;;;5051713;28;20114;-56
2021/09/08 08:17:32;;;;;;;10.38;6.72;;;23.00;56.30;;;;;;5052377;28;20021;-57
2021/09/08 08:19:59;;;;;;;54.97;10.40;;;23.10;54.70;;;;;;5058134;28;20029;-57
2021/09/08 08:22:24;;;;;;;48.08;8.75;;;23.10;53.80;;;;;;5052648;28;20095;-56
2021/09/08 08:24:50;;;;;;;10.75;6.63;;;23.20;56.40;;;;;;5051705;28;20024;-57
2021/09/08 08:27:16;;;;;;;16.55;6.20;;;23.20;57.30;;;;;;5052643;28;20463;-57
2021/09/08 08:29:42;;;;;;;28.55;9.02;;;23.30;57.10;;;;;;5052693;28;20187;-56
2021/09/08 08:32:08;;;;;;;45.50;10.23;;;23.30;56.90;;;;;;5051421;28;20028;-57
2021/09/08 08:34:33;;;;;;;71.80;14.85;;;23.40;56.20;;;;;;5052109;28;20386;-57
2021/09/08 08:36:59;;;;;;;49.25;11.02;;;23.40;55.40;;;;;;5051436;28;20033;-57
2021/09/08 08:39:25;;;;;;;42.25;10.88;;;23.40;55.60;;;;;;5051971;28;20029;-57
2021/09/08 08:41:50;;;;;;;47.28;10.75;;;23.40;55.50;;;;;;5051534;28;20025;-57
2021/09/08 08:44:22;;;;;;;42.97;13.05;;;23.40;55.70;;;;;;5051881;28;20391;-57
2021/09/08 08:46:49;;;;;;;38.03;10.35;;;23.40;55.60;;;;;;5050792;28;20028;-57
2021/09/08 08:49:16;;;;;;;19.20;8.25;;;23.40;55.50;;;;;;5052545;28;20029;-57
2021/09/08 08:51:42;;;;;;;16.75;8.38;;;23.30;53.70;;;;;;5051592;28;20025;-57
2021/09/08 08:54:07;;;;;;;15.13;8.60;;;23.10;53.00;;;;;;5050661;28;20033;-55
2021/09/08 08:56:33;;;;;;;18.08;7.90;;;23.10;53.30;;;;;;5052217;28;20029;-57
2021/09/08 08:58:58;;;;;;;15.60;8.00;;;23.10;55.40;;;;;;5050799;28;20151;-58
2021/09/08 09:01:26;;;;;;;25.73;8.20;;;23.10;53.00;;;;;;5051301;28;20056;-58
2021/09/08 09:04:09;;;;;;;1569.18;238.02;;;23.00;53.10;;;;;;5051085;28;20033;-58
2021/09/08 09:06:42;;;;;;;124.05;21.40;;;23.00;53.50;;;;;;5051862;28;20072;-58
2021/09/08 09:09:18;;;;;;;96.40;18.80;;;23.00;52.80;;;;;;5050556;28;20040;-58
2021/09/08 09:11:48;;;;;;;59.95;12.50;;;22.90;52.90;;;;;;5050374;28;20021;-57
2021/09/08 09:14:15;;;;;;;36.75;10.32;;;22.90;53.00;;;;;;5031325;28;20090;-58
2021/09/08 09:16:43;;;;;;;50.83;11.45;;;22.90;52.40;;;;;;5037679;28;20017;-58
2021/09/08 09:19:10;;;;;;;29.13;8.38;;;22.90;52.30;;;;;;5051120;28;20063;-58
2021/09/08 09:21:36;;;;;;;25.55;8.23;;;22.90;52.20;;;;;;5051503;28;20053;-58
2021/09/08 09:24:08;;;;;;;30.60;8.63;;;23.00;52.30;;;;;;5050428;28;20282;-58
2021/09/08 09:26:34;;;;;;;25.42;8.52;;;23.00;52.30;;;;;;5051564;28;20037;-58
2021/09/08 09:29:13;;;;;;;26.23;8.20;;;23.00;52.50;;;;;;5049887;28;20033;-57
2021/09/08 09:32:11;;;;;;;26.35;8.48;;;23.10;52.40;;;;;;5044034;28;20043;-59
2021/09/08 09:34:39;;;;;;;19.55;7.65;;;22.90;52.30;;;;;;5046647;28;20080;-57
2021/09/08 09:37:05;;;;;;;17.15;7.00;;;23.10;52.70;;;;;;5050406;28;20021;-58
2021/09/08 09:39:33;;;;;;;9.50;6.80;;;23.10;52.30;;;;;;5050864;28;20037;-57
2021/09/08 09:42:05;;;;;;;11.65;6.18;;;23.10;52.40;;;;;;5050640;28;20112;-58
2021/09/08 09:44:31;;;;;;;;;;;23.10;52.60;;;;;;5052135;28;20554;-58
2021/09/08 09:46:57;;;;;;;18.15;6.47;;;23.10;52.60;;;;;;5042674;28;20408;-58
2021/09/08 09:49:25;;;;;;;10.85;6.18;;;23.20;52.30;;;;;;5056671;28;20029;-58
2021/09/08 09:51:55;;;;;;;17.02;6.70;;;23.20;52.30;;;;;;5050547;28;20495;-57
2021/09/08 09:54:22;;;;;;;14.95;6.55;;;23.20;52.50;;;;;;5050247;28;20437;-57
2021/09/08 09:56:48;;;;;;;9.15;6.43;;;23.20;52.50;;;;;;5051271;28;20017;-59
2021/09/08 09:59:16;;;;;;;10.10;6.22;;;23.20;51.90;;;;;;5048659;28;20433;-57
2021/09/08 10:01:42;;;;;;;9.32;5.47;;;23.20;51.80;;;;;;5051307;28;20053;-56
2021/09/08 10:04:09;;;;;;;10.80;6.25;;;23.20;52.30;;;;;;5044089;28;20044;-56
2021/09/08 10:06:36;;;;;;;11.73;5.95;;;23.20;52.30;;;;;;5051364;28;20017;-57
2021/09/08 10:09:03;;;;;;;10.30;5.45;;;23.40;52.00;;;;;;5050260;28;20398;-56
2021/09/08 10:11:33;;;;;;;9.57;5.68;;;23.90;51.20;;;;;;5051597;28;20025;-53
2021/09/08 10:14:15;;;;;;;12.88;6.65;;;24.60;50.40;;;;;;5050477;28;20094;-53
2021/09/08 10:16:47;;;;;;;8.50;5.47;;;24.30;51.30;;;;;;5051106;28;20021;-54
2021/09/08 10:19:17;;;;;;;15.13;5.57;;;24.00;51.90;;;;;;5051788;28;20044;-57
2021/09/08 10:21:45;;;;;;;7.68;5.13;;;23.80;52.60;;;;;;5050598;28;20021;-53
2021/09/08 10:24:11;;;;;;;10.52;5.28;;;23.70;53.00;;;;;;5053681;28;20052;-51
2021/09/08 10:26:36;;;;;;;9.90;5.50;;;23.70;53.30;;;;;;5052611;28;20028;-57
2021/09/08 10:29:08;;;;;;;8.80;5.10;;;23.70;53.40;;;;;;5034145;28;20095;-59
2021/09/08 10:31:35;;;;;;;10.00;5.38;;;23.70;53.50;;;;;;5049645;28;20029;-57
2021/09/08 10:34:03;;;;;;;11.32;5.85;;;23.70;53.60;;;;;;5053640;28;20091;-52
2021/09/08 10:36:29;;;;;;;9.55;5.20;;;23.60;53.70;;;;;;5054529;28;20028;-53
2021/09/08 10:39:15;;;;;;;12.02;6.15;;;23.70;54.00;;;;;;5057907;28;20021;-52
2021/09/08 10:41:40;;;;;;;10.40;5.43;;;23.70;54.60;;;;;;5054517;28;20074;-53
2021/09/08 10:44:06;;;;;;;9.63;5.40;;;23.70;56.50;;;;;;5053461;28;20033;-55
2021/09/08 10:46:54;;;;;;;12.32;5.50;;;23.70;55.20;;;;;;5047740;28;20751;-53
2021/09/08 10:49:38;;;;;;;12.95;5.53;;;23.70;54.80;;;;;;5053091;28;20044;-53
2021/09/08 10:52:25;;;;;;;8.30;5.13;;;23.70;55.20;;;;;;5052664;28;20032;-51
2021/09/08 10:54:54;;;;;;;8.02;5.63;;;23.70;55.20;;;;;;5049766;28;20490;-56
2021/09/08 10:57:41;;;;;;;7.18;5.20;;;23.70;54.90;;;;;;5053630;28;20032;-54
2021/09/08 11:00:30;;;;;;;13.88;5.35;;;23.70;55.20;;;;;;5051624;28;20502;-55
2021/09/08 11:02:57;;;;;;;7.53;4.93;;;23.70;55.00;;;;;;5050024;28;20044;-52
2021/09/08 11:05:22;;;;;;;10.65;6.60;;;23.70;55.30;;;;;;5052795;28;20040;-51
2021/09/08 11:07:50;;;;;;;11.13;5.13;;;23.70;55.30;;;;;;5053441;28;20474;-54
2021/09/08 11:10:32;;;;;;;7.57;5.45;;;23.70;55.20;;;;;;5053017;28;20025;-54
2021/09/08 11:13:00;;;;;;;8.63;5.70;;;23.70;55.30;;;;;;5052378;28;20033;-55
2021/09/08 11:15:31;;;;;;;12.35;6.05;;;23.70;55.30;;;;;;5053090;28;20040;-55
2021/09/08 11:17:57;;;;;;;8.25;5.20;;;23.70;55.40;;;;;;5054490;28;20481;-51
2021/09/08 11:20:23;;;;;;;8.40;5.18;;;23.80;54.60;;;;;;5054180;28;20045;-54
2021/09/08 11:23:13;;;;;;;7.82;5.10;;;23.80;54.90;;;;;;5053522;28;20130;-51
2021/09/08 11:25:41;;;;;;;8.10;4.68;;;23.80;54.50;;;;;;5053852;28;20151;-54
2021/09/08 11:28:08;;;;;;;7.85;4.90;;;23.80;54.80;;;;;;5052631;28;20040;-53
2021/09/08 11:30:39;;;;;;;6.25;4.93;;;23.80;54.80;;;;;;5045666;28;20112;-54
2021/09/08 11:33:08;;;;;;;9.52;4.80;;;23.80;54.70;;;;;;5053189;28;20039;-51
2021/09/08 11:35:34;;;;;;;6.85;5.47;;;23.80;54.80;;;;;;5053587;28;20048;-53
2021/09/08 11:38:02;;;;;;;8.68;5.28;;;23.80;54.90;;;;;;5053382;28;20053;-55
2021/09/08 11:40:28;;;;;;;7.90;5.32;;;23.80;54.80;;;;;;5052985;28;20494;-51
2021/09/08 11:42:53;;;;;;;7.65;5.45;;;23.80;54.90;;;;;;5051687;28;20049;-52
2021/09/08 11:45:29;;;;;;;6.15;4.80;;;23.90;55.10;;;;;;5052374;28;20045;-52
2021/09/08 11:47:56;;;;;;;11.25;5.45;;;23.80;55.10;;;;;;5042609;28;20045;-51
2021/09/08 11:50:22;;;;;;;6.25;4.72;;;23.80;55.20;;;;;;5065601;28;20383;-51
2021/09/08 11:52:59;;;;;;;11.07;6.32;;;23.80;55.20;;;;;;5053967;28;20068;-53
2021/09/08 11:55:33;;;;;;;6.75;4.93;;;23.90;55.20;;;;;;5052620;28;20036;-52
2021/09/08 11:58:21;;;;;;;5.72;4.70;;;23.90;55.20;;;;;;5045517;28;20090;-55
2021/09/08 12:01:04;;;;;;;6.22;4.80;;;23.90;55.10;;;;;;5052186;28;20053;-54
2021/09/08 12:03:31;;;;;;;6.82;4.78;;;23.90;55.20;;;;;;5053113;28;20036;-52
2021/09/08 12:06:08;;;;;;;6.78;4.50;;;23.90;55.30;;;;;;5052243;28;20425;-55
2021/09/08 12:08:34;;;;;;;6.32;4.45;;;23.90;55.30;;;;;;5052176;28;20022;-54
2021/09/08 12:11:00;;;;;;;6.50;4.38;;;23.90;55.30;;;;;;5052272;28;20060;-55
2021/09/08 12:13:31;;;;;;;6.60;4.65;;;23.90;55.30;;;;;;5052087;28;20482;-50
2021/09/08 12:15:57;;;;;;;6.30;4.97;;;23.90;55.40;;;;;;5052489;28;20029;-52
2021/09/08 12:18:23;;;;;;;7.60;4.70;;;23.90;55.30;;;;;;5050673;28;20039;-55
2021/09/08 12:20:49;;;;;;;6.78;4.82;;;23.90;55.40;;;;;;5052509;28;20024;-54
2021/09/08 12:23:29;;;;;;;9.10;5.13;;;24.00;55.40;;;;;;5051336;28;20074;-51
2021/09/08 12:26:07;;;;;;;5.93;4.63;;;23.90;55.40;;;;;;5051522;28;20057;-54
2021/09/08 12:28:33;;;;;;;5.63;4.20;;;24.00;55.40;;;;;;5051497;28;20033;-54
2021/09/08 12:31:18;;;;;;;6.40;4.55;;;24.00;55.40;;;;;;5051092;28;20385;-53
2021/09/08 12:33:56;;;;;;;6.32;4.57;;;24.00;55.50;;;;;;5050910;28;20033;-52
2021/09/08 12:36:23;;;;;;;5.60;4.45;;;24.00;55.40;;;;;;5049559;28;20025;-54
2021/09/08 12:38:50;;;;;;;6.15;5.03;;;24.00;55.40;;;;;;5051466;28;20031;-53
2021/09/08 12:41:31;;;;;;;6.28;4.43;;;24.00;55.30;;;;;;5051071;28;20024;-55
2021/09/08 12:44:00;;;;;;;5.97;4.43;;;24.00;55.40;;;;;;5050371;28;20102;-52